עמוד ראשי
METAR-TAF:

METAR-TAF

שדות תעופה :

סן-לואי, סנגל

קו רוחב: 16-03N, קו אורך: 016-27W, גובה: 4מטר

תצפית מזג אוויר נוכחית

הדו"ח נערך לפני 1 שעות ו 16דקות, בשעה 20:00 UTC
רוח 6קשר מכיוון מערב/צפון-מערב, משתנה בין מערב ו צפון/צפון-מערב
טמפרטורת 26 צלסיוס
לחות 84%
לחץ 1010 hPa
ראות 10 קילומטר או יותר
ללא עננים שבסיסם נמוך מ 5000 רגל או קומולונימבוס

METAR: GOSS 232000Z 30006KT 260V340 CAVOK 26/23 Q1010

זמן: 21:16 (21:16 UTC)

תחזית

הדו"ח נערך לפני 4 שעות ו 16דקות, בשעה 17:00 UTC
תחזית בתוקף מ 23 ב 18 UTC עד 24 ב 18 UTC
רוח 8קשר מכיוון מערב/צפון-מערב
ראות 10 קילומטר או יותר
ללא עננים שבסיסם נמוך מ 5000 רגל או קומולונימבוס

TAF: GOSS 231700Z 2318/2418 29008KT CAVOK

תצפיות ותחזיות מזג אוויר לגבי יותר מ- 4,000 שדות תעופה ברחבי העולם. דוחות METAR ו- TAF.

התחנות הזמינות מסומנות בנקודות צהובות ואדומות על גבי המפה.

העבר את העכבר לנקודה הצבעונית על מנת לראות את שם התחנה.

לאחר מכן, לחץ כדי לראות את תוכן ואת תחזיות מזג האוויר.

כדי לשנות את המפה: לחץ על הכפתורים הירוקים עם הפלוס השחור כדי להתקרב; על הכפתור הירוק עם המקף כדי להתרחק; או בחיצים הירוקים למפות סמוכות.


METAR-TAF: